createdAt,value
2023-04-15T21:04:02.528Z,29.6
2023-04-15T21:07:02.517Z,29.5
2023-04-15T21:10:02.556Z,33.2
2023-04-15T21:13:02.560Z,35.2
2023-04-15T21:16:02.588Z,35
2023-04-15T21:19:02.600Z,38.7
2023-04-15T21:22:02.599Z,36.5
2023-04-15T21:25:02.613Z,40.1
2023-04-15T21:28:02.642Z,40.9
2023-04-15T21:31:02.688Z,41.3
2023-04-15T21:34:02.659Z,40.9
2023-04-15T21:37:02.699Z,38.4
2023-04-15T21:40:02.824Z,38
2023-04-15T21:43:02.752Z,37.7
2023-04-15T21:46:21.551Z,38.5
2023-04-15T21:49:02.851Z,38.1
2023-04-15T21:52:02.799Z,36.3
2023-04-15T21:55:02.838Z,36.8
2023-04-15T21:58:02.847Z,35.9
2023-04-15T22:01:02.885Z,37.2
2023-04-15T22:04:03.015Z,39.4
2023-04-15T22:07:02.917Z,42.7
2023-04-15T22:10:02.952Z,41.7
2023-04-15T22:13:02.953Z,40.2
2023-04-15T22:16:02.990Z,41.5
2023-04-15T22:19:03.045Z,42.2
2023-04-15T22:22:03.004Z,44.6
2023-04-15T22:25:03.044Z,46.1
2023-04-15T22:28:03.058Z,49
2023-04-15T22:31:03.117Z,49.4
2023-04-15T22:34:03.112Z,48.1
2023-04-15T22:37:03.123Z,52.2
2023-04-15T22:40:03.138Z,50.6
2023-04-15T22:43:03.465Z,51.5
2023-04-15T22:46:03.194Z,49.3
2023-04-15T22:49:03.363Z,48
2023-04-15T22:52:03.263Z,48.6
2023-04-15T22:55:03.309Z,48.7
2023-04-15T22:58:03.270Z,44.4
2023-04-15T23:01:03.296Z,48.7
2023-04-15T23:04:04.731Z,47.6
2023-04-15T23:07:03.345Z,47.6
2023-04-15T23:10:03.373Z,47.2
2023-04-15T23:13:03.423Z,48.2
2023-04-15T23:16:03.434Z,47.5
2023-04-15T23:19:03.461Z,46.3
2023-04-15T23:22:03.470Z,47
2023-04-15T23:25:03.486Z,46.6
2023-04-15T23:28:03.507Z,47.5
2023-04-15T23:31:03.534Z,48.7
2023-04-15T23:34:03.564Z,45.3
2023-04-15T23:37:03.584Z,47.9
2023-04-15T23:40:03.610Z,49.4
2023-04-15T23:43:03.626Z,53
2023-04-15T23:46:03.660Z,53.6
2023-04-15T23:49:03.702Z,54.7
2023-04-15T23:52:03.716Z,53.9
2023-04-15T23:55:03.747Z,55.7
2023-04-15T23:58:03.758Z,53.6
